Time;durP1;ratioP1;P1;durP2;ratioP2;P2;SDS_P1;SDS_P2;PMS_P1;PMS_P2;Temp;Humidity;BMP_temperature;BMP_pressure;BME280_temperature;BME280_humidity;BME280_pressure;Samples;Min_cycle;Max_cycle;Signal;HPM_P1;HPM_P2
2021/05/19 00:01:15;;;;;;;6.50;1.73;;;;;;;7.52;75.20;101190.56;5022387;28;20033;-86
2021/05/19 00:03:40;;;;;;;2.70;1.65;;;;;;;7.29;75.39;101153.44;5010544;28;20021;-86
2021/05/19 00:06:06;;;;;;;3.60;2.33;;;;;;;7.50;74.96;101198.72;5014169;28;20026;-86
2021/05/19 00:08:31;;;;;;;3.88;1.90;;;;;;;7.48;74.51;101201.53;5013617;28;20435;-86
2021/05/19 00:10:57;;;;;;;1.92;1.48;;;;;;;7.53;74.27;101202.94;5030172;28;20028;-86
2021/05/19 00:13:26;;;;;;;2.25;1.63;;;;;;;7.43;75.19;101197.63;5010833;28;20392;-87
2021/05/19 00:15:51;;;;;;;2.58;1.45;;;;;;;7.30;74.88;101195.25;5024567;28;20513;-86
2021/05/19 00:18:17;;;;;;;4.47;1.50;;;;;;;6.97;74.91;101162.66;5019618;28;20060;-86
2021/05/19 00:20:42;;;;;;;3.17;1.70;;;;;;;7.07;75.29;101193.91;5013026;28;20031;-86
2021/05/19 00:23:08;;;;;;;4.55;1.67;;;;;;;6.96;75.24;101189.50;5010113;28;20488;-83
2021/05/19 00:25:33;;;;;;;3.83;1.70;;;;;;;6.86;74.63;101194.03;5029557;28;20096;-86
2021/05/19 00:27:58;;;;;;;4.03;1.77;;;;;;;6.62;75.36;101165.91;5012263;28;20404;-86
2021/05/19 00:30:24;;;;;;;3.00;1.55;;;;;;;6.68;76.04;101189.38;5009054;28;20068;-83
2021/05/19 00:32:49;;;;;;;2.83;1.45;;;;;;;6.63;75.71;101186.28;5023382;28;20095;-86
2021/05/19 00:35:15;;;;;;;3.28;1.55;;;;;;;6.66;75.96;101203.88;5006586;28;20075;-84
2021/05/19 00:37:42;;;;;;;4.93;1.77;;;;;;;6.60;76.38;101203.44;5012943;28;20025;-86
2021/05/19 00:40:08;;;;;;;4.45;1.50;;;;;;;6.55;76.64;101195.00;5028956;28;20774;-85
2021/05/19 00:42:33;;;;;;;3.92;1.40;;;;;;;6.49;76.59;101200.06;5028472;28;20026;-86
2021/05/19 00:45:04;;;;;;;3.20;1.50;;;;;;;6.52;76.69;101215.81;5028237;28;20033;-84
2021/05/19 00:47:41;;;;;;;4.40;2.08;;;;;;;6.54;76.06;101221.88;5020465;28;20033;-86
2021/05/19 00:50:10;;;;;;;4.45;1.92;;;;;;;6.55;76.54;101216.38;5017379;28;20021;-87
2021/05/19 00:52:36;;;;;;;4.80;2.00;;;;;;;6.60;76.23;101207.94;5007072;28;20021;-86
2021/05/19 00:55:02;;;;;;;3.90;1.80;;;;;;;6.64;75.67;101212.00;5033350;28;20034;-86
2021/05/19 00:57:27;;;;;;;4.55;2.00;;;;;;;6.56;76.16;101196.72;5026034;28;20034;-86
2021/05/19 00:59:53;;;;;;;4.80;2.22;;;;;;;6.57;75.51;101193.03;5027106;28;20029;-86
2021/05/19 01:02:18;;;;;;;4.10;2.05;;;;;;;6.63;75.69;101196.13;5014819;28;20033;-86
2021/05/19 01:04:44;;;;;;;5.70;2.50;;;;;;;6.46;75.42;101168.28;5010664;28;20373;-86
2021/05/19 01:07:22;;;;;;;5.28;2.90;;;;;;;6.34;75.16;101159.53;5014324;28;20037;-85
2021/05/19 01:09:47;;;;;;;4.78;2.30;;;;;;;6.42;75.26;101186.41;5013763;28;20120;-87
2021/05/19 01:12:15;;;;;;;4.18;1.90;;;;;;;6.40;75.16;101201.72;5029328;28;20129;-87
2021/05/19 01:14:41;;;;;;;1.75;1.20;;;;;;;6.23;75.46;101200.56;5024251;28;20021;-86
2021/05/19 01:17:07;;;;;;;2.45;1.40;;;;;;;5.97;75.77;101197.53;5028243;28;20083;-86
2021/05/19 01:19:38;;;;;;;3.47;1.45;;;;;;;5.86;76.43;101203.78;5022271;28;20369;-87
2021/05/19 01:22:12;;;;;;;2.80;1.52;;;;;;;5.85;76.00;101214.63;5030276;28;20032;-85
2021/05/19 01:24:38;;;;;;;;;;;;;;;5.77;75.88;101209.06;5024447;28;20067;-86
2021/05/19 01:27:04;;;;;;;2.53;1.40;;;;;;;5.67;76.58;101201.88;5009156;28;19910;-86
2021/05/19 01:29:29;;;;;;;2.00;1.40;;;;;;;5.71;76.64;101210.44;5007713;28;20077;-86
2021/05/19 01:31:55;;;;;;;3.25;1.52;;;;;;;5.68;76.97;101202.72;5010377;28;20523;-85
2021/05/19 01:34:20;;;;;;;2.20;1.35;;;;;;;5.45;76.61;101157.56;5025275;28;20030;-85
2021/05/19 01:36:46;;;;;;;2.13;1.52;;;;;;;5.79;76.77;101215.97;5013220;28;20044;-84
2021/05/19 01:39:12;;;;;;;3.25;1.70;;;;;;;5.74;76.86;101202.19;5010748;28;20087;-85
2021/05/19 01:41:38;;;;;;;2.10;1.23;;;;;;;5.82;77.42;101207.72;5006386;28;20030;-84
2021/05/19 01:44:15;;;;;;;4.53;1.70;;;;;;;5.85;78.32;101214.63;5029065;28;20043;-85
2021/05/19 01:46:41;;;;;;;2.03;1.23;;;;;;;5.70;78.65;101196.28;5014829;28;20029;-86
2021/05/19 01:49:07;;;;;;;3.00;1.60;;;;;;;5.50;78.59;101179.34;5012971;28;20040;-85
2021/05/19 01:51:35;;;;;;;2.47;1.10;;;;;;;5.41;79.19;101176.63;5020510;28;20476;-87
2021/05/19 01:54:02;;;;;;;2.42;1.88;;;;;;;5.49;79.81;101203.47;5009521;28;20033;-85
2021/05/19 01:56:28;;;;;;;3.20;1.52;;;;;;;5.52;81.04;101200.53;5019051;28;20431;-85
2021/05/19 01:58:53;;;;;;;3.58;1.60;;;;;;;5.50;79.68;101171.34;5018594;28;20029;-86
2021/05/19 02:01:18;;;;;;;3.45;1.60;;;;;;;5.80;79.38;101198.16;5007261;28;20566;-86
2021/05/19 02:03:44;;;;;;;3.05;1.67;;;;;;;5.82;79.54;101199.72;5028345;28;20032;-85
2021/05/19 02:06:10;;;;;;;10.45;4.22;;;;;;;5.94;79.67;101206.66;5005528;28;20037;-86
2021/05/19 02:08:35;;;;;;;5.05;2.83;;;;;;;5.98;80.08;101209.91;5020685;28;20045;-86
2021/05/19 02:11:01;;;;;;;8.75;2.90;;;;;;;5.97;80.21;101192.19;5028285;28;20029;-86
2021/05/19 02:13:26;;;;;;;6.35;2.67;;;;;;;6.18;80.50;101217.97;5014698;28;20029;-86
2021/05/19 02:15:52;;;;;;;7.13;3.63;;;;;;;6.13;79.93;101197.03;5019870;28;20527;-85
2021/05/19 02:18:17;;;;;;;10.13;4.38;;;;;;;6.14;79.60;101204.91;5008560;28;20041;-84
2021/05/19 02:20:43;;;;;;;12.18;5.40;;;;;;;6.20;79.40;101200.84;5026896;28;20030;-86
2021/05/19 02:23:08;;;;;;;10.30;4.22;;;;;;;6.21;79.10;101202.53;5011331;28;20052;-86
2021/05/19 02:25:34;;;;;;;5.35;2.33;;;;;;;6.15;78.01;101205.75;5016786;28;20025;-85
2021/05/19 02:27:59;;;;;;;4.40;2.30;;;;;;;5.89;77.69;101178.66;5029481;28;20025;-86
2021/05/19 02:30:25;;;;;;;3.10;1.50;;;;;;;6.11;77.77;101215.88;5013950;28;20025;-86
2021/05/19 02:32:51;;;;;;;3.70;1.88;;;;;;;5.98;77.44;101212.59;5024275;28;20040;-86
2021/05/19 02:35:17;;;;;;;2.20;1.38;;;;;;;5.88;77.60;101214.34;5025043;28;20021;-83
2021/05/19 02:37:43;;;;;;;3.97;1.88;;;;;;;5.88;77.63;101215.19;5028919;28;20021;-85
2021/05/19 02:40:10;;;;;;;3.55;1.52;;;;;;;5.86;77.56;101211.78;5008863;28;20108;-86
2021/05/19 02:42:36;;;;;;;3.10;1.70;;;;;;;5.94;77.97;101230.69;5028625;28;20021;-86
2021/05/19 02:45:03;;;;;;;3.78;1.48;;;;;;;5.97;78.07;101226.91;5027583;28;20043;-86
2021/05/19 02:47:29;;;;;;;4.25;1.83;;;;;;;5.99;77.93;101235.63;5009741;28;20033;-85
2021/05/19 02:49:54;;;;;;;3.85;2.08;;;;;;;5.65;78.00;101187.81;5008892;28;20366;-86
2021/05/19 02:52:20;;;;;;;2.60;1.60;;;;;;;5.88;78.18;101231.19;5019812;28;20079;-85
2021/05/19 02:54:45;;;;;;;3.40;1.88;;;;;;;5.87;78.36;101226.81;5027123;28;20574;-87
2021/05/19 02:57:11;;;;;;;2.95;1.70;;;;;;;5.85;78.19;101226.13;5028034;28;20021;-86
2021/05/19 02:59:36;;;;;;;2.72;1.45;;;;;;;5.87;77.77;101228.66;5024272;28;20032;-85
2021/05/19 03:02:03;;;;;;;4.47;1.67;;;;;;;5.70;77.41;101220.28;5005425;28;20021;-86
2021/05/19 03:04:28;;;;;;;3.03;1.58;;;;;;;5.66;77.44;101229.56;5019608;28;20017;-85
2021/05/19 03:06:54;;;;;;;3.47;1.48;;;;;;;5.58;78.49;101228.50;5020026;28;20030;-85
2021/05/19 03:09:19;;;;;;;1.98;1.50;;;;;;;5.46;77.37;101239.25;5010243;28;20021;-85
2021/05/19 03:11:45;;;;;;;2.47;1.45;;;;;;;5.37;78.61;101242.72;5011241;28;20021;-85
2021/05/19 03:14:11;;;;;;;2.25;1.50;;;;;;;5.11;78.87;101231.56;5026893;28;20040;-87
2021/05/19 03:16:37;;;;;;;2.38;1.45;;;;;;;5.16;79.11;101240.03;5008761;28;20021;-86
2021/05/19 03:19:07;;;;;;;3.03;1.50;;;;;;;4.93;78.63;101182.47;5026295;28;20028;-86
2021/05/19 03:21:32;;;;;;;3.47;1.70;;;;;;;5.32;78.72;101236.91;5027601;28;20035;-86
2021/05/19 03:23:58;;;;;;;2.30;1.45;;;;;;;5.17;78.28;101209.72;5027180;28;20434;-87
2021/05/19 03:26:23;;;;;;;3.88;1.50;;;;;;;5.41;78.32;101229.94;5010714;28;20025;-85
2021/05/19 03:28:48;;;;;;;2.22;1.48;;;;;;;5.40;77.56;101234.44;5004944;28;20378;-86
2021/05/19 03:31:14;;;;;;;2.42;1.38;;;;;;;5.34;77.97;101236.78;5021684;28;20071;-86
2021/05/19 03:33:40;;;;;;;3.67;1.60;;;;;;;5.31;77.32;101247.72;5028511;28;20075;-87
2021/05/19 03:36:06;;;;;;;4.43;1.50;;;;;;;4.89;77.02;101219.19;5011494;28;20029;-85
2021/05/19 03:38:33;;;;;;;2.00;1.40;;;;;;;4.92;77.96;101248.25;5009779;28;20113;-86
2021/05/19 03:40:59;;;;;;;2.10;1.10;;;;;;;4.74;78.46;101261.28;5033260;28;20025;-85
2021/05/19 03:43:24;;;;;;;4.32;1.90;;;;;;;4.55;78.39;101251.28;5029015;28;20029;-85
2021/05/19 03:45:50;;;;;;;3.95;1.30;;;;;;;4.29;78.75;101215.28;5037202;28;20100;-85
2021/05/19 03:48:15;;;;;;;1.83;1.20;;;;;;;4.53;78.82;101245.22;5025485;28;20036;-86
2021/05/19 03:50:43;;;;;;;3.95;1.33;;;;;;;4.57;78.63;101249.31;5018834;28;20283;-85
2021/05/19 03:53:08;;;;;;;2.33;1.38;;;;;;;4.57;79.35;101244.00;5013231;28;20025;-85
2021/05/19 03:55:34;;;;;;;2.08;1.27;;;;;;;4.50;79.12;101239.28;5026243;28;20380;-85
2021/05/19 03:57:59;;;;;;;1.85;1.17;;;;;;;4.49;79.41;101241.09;5008774;28;20029;-85
2021/05/19 04:00:28;;;;;;;2.75;1.20;;;;;;;4.57;79.31;101254.63;5031616;28;20025;-85
2021/05/19 04:02:54;;;;;;;2.10;1.20;;;;;;;4.54;79.54;101240.75;5020940;28;20034;-85
2021/05/19 04:05:26;;;;;;;3.15;1.40;;;;;;;4.57;79.04;101256.47;5038365;28;20040;-85
2021/05/19 04:07:53;;;;;;;2.20;1.30;;;;;;;4.57;79.77;101257.31;5023812;28;20040;-86
2021/05/19 04:10:18;;;;;;;5.05;1.20;;;;;;;4.42;80.03;101223.97;5005766;28;20112;-85
2021/05/19 04:12:44;;;;;;;2.10;1.40;;;;;;;4.61;80.77;101252.59;5025557;28;20113;-85
2021/05/19 04:15:10;;;;;;;2.25;1.40;;;;;;;4.69;80.84;101263.47;5021012;28;20045;-85
2021/05/19 04:17:36;;;;;;;3.22;1.40;;;;;;;4.67;79.67;101249.41;5027138;28;20033;-85
2021/05/19 04:20:03;;;;;;;3.83;1.20;;;;;;;4.67;80.78;101254.75;5026233;28;20029;-85
2021/05/19 04:22:28;;;;;;;4.10;1.38;;;;;;;4.65;80.78;101262.00;5029608;28;20018;-85
2021/05/19 04:24:53;;;;;;;1.80;1.13;;;;;;;4.69;80.97;101274.13;5023577;28;20084;-85
2021/05/19 04:27:19;;;;;;;4.75;1.42;;;;;;;4.72;80.98;101271.19;5013838;28;20050;-85
2021/05/19 04:29:44;;;;;;;2.15;1.40;;;;;;;4.73;80.76;101259.56;5013254;28;20028;-85
2021/05/19 04:32:10;;;;;;;2.05;1.25;;;;;;;4.62;81.12;101256.94;5012643;28;20032;-86
2021/05/19 04:34:38;;;;;;;2.45;1.23;;;;;;;4.69;81.51;101263.47;5029989;28;20032;-84
2021/05/19 04:37:04;;;;;;;1.73;1.20;;;;;;;4.62;82.56;101254.28;5026148;28;20052;-85
2021/05/19 04:39:30;;;;;;;2.05;1.23;;;;;;;4.67;82.34;101262.75;5027330;28;20037;-85
2021/05/19 04:41:55;;;;;;;1.75;1.30;;;;;;;4.60;82.58;101262.41;5018002;28;20034;-86
2021/05/19 04:44:21;;;;;;;4.72;1.30;;;;;;;4.43;82.47;101230.97;5015722;28;20029;-85
2021/05/19 04:46:46;;;;;;;2.70;1.50;;;;;;;4.67;82.50;101265.41;5040696;28;20040;-86
2021/05/19 04:49:12;;;;;;;2.20;1.45;;;;;;;4.68;82.84;101268.91;5030811;28;20029;-86
2021/05/19 04:51:37;;;;;;;2.08;1.23;;;;;;;4.58;82.17;101242.19;5033501;28;20039;-85
2021/05/19 04:54:03;;;;;;;2.47;1.23;;;;;;;4.63;82.71;101259.50;5012016;28;20132;-85
2021/05/19 04:56:28;;;;;;;3.83;1.45;;;;;;;4.61;82.93;101271.25;5014787;28;20036;-85
2021/05/19 04:58:54;;;;;;;1.75;1.13;;;;;;;4.54;82.36;101273.53;5030072;28;20041;-85
2021/05/19 05:01:19;;;;;;;2.05;1.23;;;;;;;4.61;82.24;101277.41;5013656;28;20027;-85
2021/05/19 05:03:45;;;;;;;3.00;1.20;;;;;;;4.45;82.08;101246.81;5020498;28;20029;-85
2021/05/19 05:06:10;;;;;;;3.42;1.38;;;;;;;4.65;81.61;101271.81;5026210;28;20021;-85
2021/05/19 05:08:36;;;;;;;1.73;1.25;;;;;;;4.70;82.03;101281.13;5033467;28;20528;-85
2021/05/19 05:11:01;;;;;;;3.38;1.73;;;;;;;4.71;82.09;101288.16;5030632;28;20062;-85
2021/05/19 05:13:27;;;;;;;3.50;1.38;;;;;;;4.76;82.17;101285.97;5024535;28;20039;-85
2021/05/19 05:15:52;;;;;;;2.30;1.20;;;;;;;4.83;81.95;101292.47;5027105;28;20037;-87
2021/05/19 05:18:18;;;;;;;2.95;1.20;;;;;;;4.70;82.07;101249.16;5010734;28;20106;-86
2021/05/19 05:20:43;;;;;;;5.32;1.52;;;;;;;4.81;82.50;101266.94;5030751;28;20032;-86
2021/05/19 05:23:08;;;;;;;2.00;1.30;;;;;;;4.90;83.00;101260.88;5020996;28;20021;-85
2021/05/19 05:25:34;;;;;;;2.95;1.27;;;;;;;5.22;83.19;101298.16;5025687;28;20091;-85
2021/05/19 05:27:59;;;;;;;2.28;1.50;;;;;;;5.20;82.90;101292.09;5028561;28;20083;-86
2021/05/19 05:30:25;;;;;;;2.58;1.30;;;;;;;5.29;83.36;101293.16;5032470;28;20029;-85
2021/05/19 05:32:50;;;;;;;2.78;1.38;;;;;;;5.48;83.75;101306.66;5013185;28;20036;-85
2021/05/19 05:35:16;;;;;;;4.97;1.27;;;;;;;5.58;83.27;101296.03;5025764;28;20458;-85
2021/05/19 05:37:41;;;;;;;1.98;1.30;;;;;;;5.77;83.34;101307.81;5016726;28;20025;-85
2021/05/19 05:40:08;;;;;;;2.40;1.25;;;;;;;5.83;84.01;101315.31;5028601;28;20104;-86
2021/05/19 05:42:34;;;;;;;2.05;1.40;;;;;;;5.84;84.15;101312.47;5014092;28;20062;-86
2021/05/19 05:45:00;;;;;;;2.42;1.20;;;;;;;5.77;83.69;101303.34;5012898;28;20032;-85
2021/05/19 05:47:26;;;;;;;4.07;1.33;;;;;;;5.86;83.26;101325.72;5011963;28;20456;-85
2021/05/19 05:49:51;;;;;;;2.67;1.35;;;;;;;5.61;83.03;101287.78;5028439;28;20056;-85
2021/05/19 05:52:17;;;;;;;1.80;1.10;;;;;;;5.78;83.58;101321.03;5017940;28;20435;-85
2021/05/19 05:54:43;;;;;;;2.83;1.15;;;;;;;5.63;84.00;101320.50;5024959;28;20480;-85
2021/05/19 05:57:08;;;;;;;2.20;1.17;;;;;;;5.49;84.25;101299.50;5027748;28;20029;-85
2021/05/19 05:59:34;;;;;;;2.30;1.55;;;;;;;5.76;84.01;101335.47;5023115;28;20068;-86
2021/05/19 06:02:00;;;;;;;2.58;1.58;;;;;;;5.88;84.01;101323.75;5004421;28;20100;-86
2021/05/19 06:04:25;;;;;;;6.30;1.63;;;;;;;6.02;83.21;101312.75;5028087;28;20037;-86
2021/05/19 06:06:50;;;;;;;2.85;1.42;;;;;;;6.30;83.11;101331.75;5024377;28;20029;-85
2021/05/19 06:09:16;;;;;;;2.88;1.73;;;;;;;6.24;82.63;101282.34;5029345;28;20017;-86
2021/05/19 06:11:41;;;;;;;3.65;1.60;;;;;;;6.63;82.88;101329.75;5013206;28;20043;-85
2021/05/19 06:14:07;;;;;;;1.90;1.40;;;;;;;6.56;82.55;101281.34;5010757;28;20412;-86
2021/05/19 06:16:32;;;;;;;3.35;1.42;;;;;;;6.70;82.92;101291.66;5027242;28;20024;-85
2021/05/19 06:18:58;;;;;;;2.88;1.50;;;;;;;6.70;83.42;101280.13;5023398;28;20492;-85
2021/05/19 06:21:23;;;;;;;4.63;1.65;;;;;;;6.83;83.12;101300.25;5025840;28;20025;-86
2021/05/19 06:23:49;;;;;;;3.25;1.67;;;;;;;7.09;83.77;101323.78;5013745;28;20033;-86
2021/05/19 06:26:14;;;;;;;3.08;1.40;;;;;;;7.14;83.81;101309.97;5011473;28;20099;-85
2021/05/19 06:28:39;;;;;;;2.53;1.05;;;;;;;7.19;83.98;101302.38;5004236;28;20044;-86
2021/05/19 06:31:05;;;;;;;2.45;1.40;;;;;;;7.23;83.86;101285.09;5025611;28;20108;-85
2021/05/19 06:33:30;;;;;;;2.67;1.30;;;;;;;7.54;83.81;101319.69;5025968;28;20052;-85
2021/05/19 06:35:56;;;;;;;6.70;1.67;;;;;;;7.77;83.97;101341.66;5028356;28;20029;-85
2021/05/19 06:38:21;;;;;;;6.20;1.25;;;;;;;7.96;83.39;101336.25;5010633;28;20029;-85
2021/05/19 06:40:47;;;;;;;2.83;1.55;;;;;;;8.19;82.34;101343.94;5016273;28;20055;-85
2021/05/19 06:43:13;;;;;;;6.20;1.35;;;;;;;8.44;82.13;101348.69;5033502;28;20020;-85
2021/05/19 06:45:38;;;;;;;4.00;1.20;;;;;;;8.41;81.47;101314.13;5027703;28;20028;-85
2021/05/19 06:48:04;;;;;;;2.50;1.15;;;;;;;8.58;82.00;101350.88;5009918;28;20029;-86
2021/05/19 06:50:29;;;;;;;4.15;1.10;;;;;;;8.51;81.79;101356.97;5031735;28;20033;-85
2021/05/19 06:52:55;;;;;;;2.88;1.40;;;;;;;8.51;82.20;101356.97;5009754;28;20132;-86
2021/05/19 06:55:22;;;;;;;1.70;1.23;;;;;;;8.34;82.33;101342.50;5030234;28;20029;-85
2021/05/19 06:57:48;;;;;;;5.63;1.23;;;;;;;8.45;82.49;101357.56;5013053;28;20029;-85
2021/05/19 07:00:14;;;;;;;1.92;1.30;;;;;;;8.23;83.40;101338.16;5028652;28;20032;-85
2021/05/19 07:02:39;;;;;;;1.90;1.23;;;;;;;8.16;83.67;101339.72;5027753;28;20029;-85
2021/05/19 07:05:06;;;;;;;3.08;1.58;;;;;;;8.36;83.24;101361.94;5027282;28;20025;-85
2021/05/19 07:07:32;;;;;;;1.92;1.20;;;;;;;8.62;83.07;101367.50;5011763;28;20025;-85
2021/05/19 07:09:57;;;;;;;6.97;1.60;;;;;;;8.86;83.08;101374.16;5013170;28;20028;-85
2021/05/19 07:12:23;;;;;;;2.78;1.30;;;;;;;9.00;82.38;101371.81;5014501;28;20025;-85
2021/05/19 07:14:55;;;;;;;4.40;1.45;;;;;;;9.18;81.98;101374.53;5026595;28;20026;-84
2021/05/19 07:17:21;;;;;;;4.40;0.95;;;;;;;9.33;81.57;101382.06;5031406;28;20113;-85
2021/05/19 07:19:46;;;;;;;4.72;1.23;;;;;;;9.42;81.13;101373.06;5028172;28;20026;-85
2021/05/19 07:22:11;;;;;;;4.88;1.30;;;;;;;9.49;80.94;101350.00;5029848;28;20051;-85
2021/05/19 07:24:37;;;;;;;2.72;1.17;;;;;;;9.86;80.77;101389.25;5012225;28;20801;-86
2021/05/19 07:27:03;;;;;;;4.70;1.40;;;;;;;9.99;79.78;101387.00;5027710;28;20602;-86
2021/05/19 07:29:28;;;;;;;3.45;0.82;;;;;;;10.08;78.94;101375.31;5026413;28;20017;-85
2021/05/19 07:31:54;;;;;;;1.48;0.90;;;;;;;10.23;78.55;101378.25;5027230;28;20027;-86
2021/05/19 07:34:19;;;;;;;4.47;1.67;;;;;;;10.37;78.41;101376.00;4999685;28;20119;-79
2021/05/19 07:36:45;;;;;;;4.43;0.95;;;;;;;10.42;77.68;101373.69;5031637;28;20107;-86
2021/05/19 07:39:11;;;;;;;3.75;0.82;;;;;;;10.54;77.12;101378.63;5033715;28;20033;-86
2021/05/19 07:41:36;;;;;;;1.48;1.00;;;;;;;10.70;76.30;101377.03;5019967;28;20021;-85
2021/05/19 07:44:03;;;;;;;2.25;0.93;;;;;;;10.85;76.29;101383.50;5015529;28;20106;-85
2021/05/19 07:46:28;;;;;;;2.78;1.27;;;;;;;11.12;75.09;101389.63;5028539;28;20491;-86
2021/05/19 07:48:54;;;;;;;2.88;1.00;;;;;;;11.14;75.20;101385.78;5022942;28;20030;-85
2021/05/19 07:51:19;;;;;;;1.50;0.95;;;;;;;11.08;74.89;101390.97;5008347;28;21072;-84
2021/05/19 07:53:45;;;;;;;3.78;1.83;;;;;;;11.24;74.85;101401.75;5024126;28;20394;-85
2021/05/19 07:56:23;;;;;;;3.88;1.05;;;;;;;11.32;74.61;101398.25;5007917;28;20053;-85
2021/05/19 07:58:53;;;;;;;3.38;0.88;;;;;;;11.15;74.29;101394.69;5012383;28;20552;-85
2021/05/19 08:04:02;;;;;;;5.32;2.85;;;;;;;11.12;73.87;101398.56;5022752;28;20083;-85
2021/05/19 08:06:28;;;;;;;4.55;1.58;;;;;;;11.21;74.55;101394.03;5026941;28;20022;-87
2021/05/19 08:08:53;;;;;;;5.25;1.33;;;;;;;11.39;73.82;101405.50;5024543;28;20028;-85
2021/05/19 08:11:18;;;;;;;5.00;1.00;;;;;;;11.62;72.54;101405.72;5010818;28;20498;-85
2021/05/19 08:13:46;;;;;;;3.83;1.00;;;;;;;11.86;71.97;101413.00;5010931;28;20120;-86
2021/05/19 08:16:13;;;;;;;2.05;0.82;;;;;;;11.82;71.82;101416.16;5029335;28;20036;-85
2021/05/19 08:18:38;;;;;;;4.03;1.10;;;;;;;11.42;71.86;101405.16;5027777;28;20025;-84
2021/05/19 08:21:04;;;;;;;2.38;0.85;;;;;;;11.17;72.97;101396.22;5034749;28;20119;-84
2021/05/19 08:23:29;;;;;;;2.17;0.90;;;;;;;11.01;73.81;101409.63;5034699;28;20021;-85
2021/05/19 08:25:58;;;;;;;5.47;3.00;;;;;;;10.69;75.11;101397.72;5018428;28;20026;-84
2021/05/19 08:28:24;;;;;;;3.85;1.85;;;;;;;10.75;76.33;101423.97;5037542;28;20060;-84
2021/05/19 08:30:49;;;;;;;3.25;1.70;;;;;;;10.77;77.50;101427.34;5013772;28;20135;-85
2021/05/19 08:33:15;;;;;;;4.13;3.50;;;;;;;10.78;77.99;101414.72;5008110;28;20036;-85
2021/05/19 08:35:40;;;;;;;14.82;10.85;;;;;;;10.79;78.05;101411.88;5010972;28;20076;-84
2021/05/19 08:38:06;;;;;;;3.92;3.17;;;;;;;10.87;78.04;101424.50;5010215;28;20025;-85
2021/05/19 08:40:32;;;;;;;9.25;8.27;;;;;;;10.97;78.03;101422.53;5028763;28;20104;-85
2021/05/19 08:42:58;;;;;;;4.97;2.30;;;;;;;11.05;77.34;101397.50;5028734;28;20112;-85
2021/05/19 08:45:23;;;;;;;5.57;4.20;;;;;;;11.80;75.97;101432.50;5029970;28;20029;-85
2021/05/19 08:47:59;;;;;;;2.55;1.27;;;;;;;11.87;76.81;101424.63;5029738;28;20047;-86
2021/05/19 08:50:24;;;;;;;4.28;1.55;;;;;;;11.88;76.39;101420.91;5029847;28;20021;-85
2021/05/19 08:52:50;;;;;;;5.03;1.98;;;;;;;11.90;76.24;101420.75;5013204;28;20017;-86
2021/05/19 08:55:19;;;;;;;5.45;2.75;;;;;;;11.68;75.65;101398.81;5031154;28;20038;-85
2021/05/19 08:57:46;;;;;;;3.70;1.50;;;;;;;12.11;74.83;101431.84;5013584;28;20534;-86
2021/05/19 09:00:12;;;;;;;5.40;1.02;;;;;;;12.31;74.12;101425.09;5025431;28;20101;-85
2021/05/19 09:02:38;;;;;;;4.05;1.50;;;;;;;12.69;72.00;101395.66;5014590;28;20155;-86
2021/05/19 09:05:05;;;;;;;3.55;1.60;;;;;;;12.79;71.31;101408.13;5030535;28;20108;-85
2021/05/19 09:07:31;;;;;;;3.78;1.73;;;;;;;12.61;69.03;101417.28;5013319;28;20025;-86
2021/05/19 09:09:57;;;;;;;5.05;2.28;;;;;;;12.21;70.42;101400.16;5016989;28;20436;-85
2021/05/19 09:12:22;;;;;;;3.35;1.60;;;;;;;12.08;71.32;101419.56;5014564;28;20031;-86
2021/05/19 09:14:51;;;;;;;2.25;0.90;;;;;;;11.52;72.11;101433.81;5013125;28;20067;-85
2021/05/19 09:17:22;;;;;;;1.33;0.70;;;;;;;10.90;75.07;101426.91;5030702;28;20056;-86
2021/05/19 09:19:49;;;;;;;1.38;0.85;;;;;;;10.38;76.88;101401.91;5029626;28;20025;-86
2021/05/19 09:22:22;;;;;;;2.35;0.88;;;;;;;10.12;77.72;101422.38;5029496;28;20048;-85
2021/05/19 09:24:48;;;;;;;;;;;;;;;10.05;77.61;101439.25;5011173;28;20025;-85
2021/05/19 09:27:14;;;;;;;2.42;1.65;;;;;;;9.94;77.21;101434.13;5029389;28;20355;-85
2021/05/19 09:29:44;;;;;;;2.90;1.73;;;;;;;9.92;77.33;101436.97;5028820;28;20404;-84
2021/05/19 09:32:13;;;;;;;3.67;1.90;;;;;;;10.02;77.03;101424.28;5030749;28;20079;-85
2021/05/19 09:34:43;;;;;;;2.53;1.40;;;;;;;10.29;76.14;101415.31;5013789;28;20036;-85
2021/05/19 09:37:22;;;;;;;3.58;0.98;;;;;;;11.00;75.02;101430.28;5028940;28;20029;-85
2021/05/19 09:39:56;;;;;;;2.25;0.95;;;;;;;11.65;72.49;101426.09;5030562;28;20045;-85
2021/05/19 09:42:45;;;;;;;0.73;0.70;;;;;;;12.20;70.55;101420.06;5029294;28;20079;-85
2021/05/19 09:45:38;;;;;;;0.50;0.50;;;;;;;12.70;69.39;101424.34;5029135;28;20420;-85
2021/05/19 09:48:03;;;;;;;;;;;;;;;13.03;68.24;101426.91;5028958;28;20108;-85
2021/05/19 09:50:35;;;;;;;3.83;0.80;;;;;;;13.30;66.79;101430.19;5020301;28;19952;-80
2021/05/19 09:53:03;;;;;;;2.83;0.80;;;;;;;13.47;65.88;101428.22;5032531;28;20037;-80
2021/05/19 09:55:29;;;;;;;2.15;0.70;;;;;;;13.64;65.03;101417.13;5037794;28;20025;-80
2021/05/19 09:57:54;;;;;;;2.67;0.80;;;;;;;13.97;64.25;101416.03;5023706;28;20048;-80
2021/05/19 10:00:24;;;;;;;4.13;1.00;;;;;;;14.30;63.00;101419.28;5025278;28;20025;-80
2021/05/19 10:02:51;;;;;;;0.90;0.68;;;;;;;14.53;62.18;101419.25;5029044;28;20052;-79
2021/05/19 10:05:23;;;;;;;1.52;0.70;;;;;;;14.74;61.87;101423.94;5024536;28;20017;-79
2021/05/19 10:07:49;;;;;;;2.40;0.68;;;;;;;14.85;61.23;101419.91;5019207;28;20558;-80
2021/05/19 10:10:14;;;;;;;0.90;0.63;;;;;;;14.51;61.75;101407.75;5012286;28;20033;-80
2021/05/19 10:12:41;;;;;;;1.35;0.75;;;;;;;14.16;61.64;101407.41;5030053;28;20550;-80
2021/05/19 10:15:12;;;;;;;1.17;0.60;;;;;;;14.00;62.28;101432.75;5028643;28;20044;-79
2021/05/19 10:17:42;;;;;;;0.93;0.60;;;;;;;13.83;63.70;101423.06;5028927;28;20140;-82
2021/05/19 10:20:12;;;;;;;1.70;0.65;;;;;;;13.83;63.95;101425.78;5018604;28;20102;-79
2021/05/19 10:22:43;;;;;;;2.08;0.77;;;;;;;13.79;63.25;101419.91;5025661;28;20053;-81
2021/05/19 10:25:19;;;;;;;2.03;1.25;;;;;;;13.83;62.64;101423.06;5025892;28;20021;-81
2021/05/19 10:27:48;;;;;;;1.13;0.60;;;;;;;14.00;61.78;101426.50;5021408;28;20046;-80
2021/05/19 10:30:37;;;;;;;0.98;0.57;;;;;;;14.06;59.55;101413.06;5023116;28;20392;-80
2021/05/19 10:33:03;;;;;;;1.80;0.75;;;;;;;14.22;58.47;101420.19;5023911;28;20499;-80
2021/05/19 10:35:34;;;;;;;0.85;0.68;;;;;;;14.38;57.17;101415.66;5028365;28;20033;-78
2021/05/19 10:38:16;;;;;;;2.05;0.60;;;;;;;14.38;57.39;101421.91;5029257;28;20117;-81
2021/05/19 10:40:51;;;;;;;1.63;0.75;;;;;;;14.39;57.42;101428.97;5038736;28;20035;-81
2021/05/19 10:43:17;;;;;;;1.55;0.90;;;;;;;14.35;57.88;101422.28;5037936;28;20094;-79
2021/05/19 10:45:56;;;;;;;1.38;0.60;;;;;;;14.43;58.15;101424.91;5038462;28;20045;-79
2021/05/19 10:48:33;;;;;;;0.77;0.50;;;;;;;14.54;55.93;101417.38;5030307;28;20030;-80
2021/05/19 10:51:42;;;;;;;2.42;0.60;;;;;;;14.45;56.28;101413.91;5019622;28;20034;-79
2021/05/19 11:00:22;;;;;;;3.50;0.80;;;;;;;14.04;57.25;101431.34;5040237;28;20032;-79
2021/05/19 11:03:09;;;;;;;1.20;0.80;;;;;;;13.90;58.13;101432.16;5034296;28;20037;-80
2021/05/19 11:05:35;;;;;;;1.23;0.70;;;;;;;13.87;59.95;101440.63;5027398;28;20445;-80
2021/05/19 11:08:13;;;;;;;1.20;0.70;;;;;;;13.58;62.15;101428.66;5012267;28;20040;-80
2021/05/19 11:10:50;;;;;;;3.50;0.90;;;;;;;13.12;65.11;101442.03;5031758;28;20037;-81
2021/05/19 11:13:18;;;;;;;2.53;1.20;;;;;;;12.77;67.51;101436.09;5039067;28;20980;-78
2021/05/19 11:21:00;;;;;;;1.88;0.90;;;;;;;12.30;69.20;101433.34;5028553;28;20060;-85
2021/05/19 11:23:26;;;;;;;0.90;0.70;;;;;;;12.52;69.66;101439.91;5029253;28;20021;-84
2021/05/19 11:26:14;;;;;;;1.88;0.70;;;;;;;12.75;69.38;101432.75;5013863;28;20040;-83
2021/05/19 11:28:42;;;;;;;1.05;0.88;;;;;;;13.11;68.91;101440.38;5032918;28;20014;-83
2021/05/19 11:31:17;;;;;;;1.63;0.80;;;;;;;13.29;68.24;101431.22;5034480;28;20662;-85
2021/05/19 11:33:54;;;;;;;3.67;0.90;;;;;;;13.52;67.55;101442.91;5013695;28;20040;-84
2021/05/19 11:36:50;;;;;;;0.70;0.60;;;;;;;13.69;66.24;101445.50;5027946;28;20112;-86
2021/05/19 11:39:35;;;;;;;1.02;0.60;;;;;;;13.94;65.55;101440.72;5029522;28;20065;-85
2021/05/19 11:42:20;;;;;;;4.82;0.80;;;;;;;14.35;65.27;101443.91;5031110;28;20034;-85
2021/05/19 11:44:54;;;;;;;1.17;0.70;;;;;;;14.89;61.48;101443.69;5023371;28;20131;-83
2021/05/19 11:47:32;;;;;;;3.45;1.10;;;;;;;15.50;59.29;101453.41;5028189;28;20480;-84